Terminal Aerodrome Forecast
Issued by NWS Binghamton, NY

Home | Current Version | Previous Version | Text Only | Print | Product List | Glossary On
Versions: 1 2 3 4 5 6 7 8 9 10 11 12 13 14 15
000
FTUS41 KBGM 300531
TAFAVP
TAF
KAVP 300531Z 3006/3106 11003KT P6SM BKN250
     FM301000 13003KT P6SM OVC100
     FM301400 24006KT P6SM SCT050 BKN100
     FM310100 19003KT P6SM SCT050 BKN100=

USA.gov is the U.S. government's official web portal to all federal, state and local government web resources and services.